sensor_id;sensor_type;location;lat;lon;timestamp;pressure;altitude;pressure_sealevel;temperature;humidity
32642;BME280;19323;56.072;9.698;2023-04-04T00:00:05;102495.16;;;26.27;32.33
32642;BME280;19323;56.072;9.698;2023-04-04T00:02:31;102478.06;;;26.17;32.31
32642;BME280;19323;56.072;9.698;2023-04-04T00:04:56;102496.13;;;26.26;32.33
32642;BME280;19323;56.072;9.698;2023-04-04T00:07:21;102498.94;;;26.24;31.88
32642;BME280;19323;56.072;9.698;2023-04-04T00:09:46;102495.41;;;26.24;32.19
32642;BME280;19323;56.072;9.698;2023-04-04T00:12:11;102497.22;;;26.23;32.23
32642;BME280;19323;56.072;9.698;2023-04-04T00:14:37;102496.28;;;26.24;31.83
32642;BME280;19323;56.072;9.698;2023-04-04T00:17:02;102496.28;;;26.24;31.70
32642;BME280;19323;56.072;9.698;2023-04-04T00:19:27;102490.06;;;26.24;32.15
32642;BME280;19323;56.072;9.698;2023-04-04T00:21:53;102491.00;;;26.23;31.83
32642;BME280;19323;56.072;9.698;2023-04-04T00:24:19;102491.13;;;26.21;32.17
32642;BME280;19323;56.072;9.698;2023-04-04T00:26:44;102488.59;;;26.20;31.88
32642;BME280;19323;56.072;9.698;2023-04-04T00:29:09;102480.63;;;26.18;31.79
32642;BME280;19323;56.072;9.698;2023-04-04T00:31:34;102477.22;;;26.16;32.06
32642;BME280;19323;56.072;9.698;2023-04-04T00:34:00;102473.69;;;26.16;31.73
32642;BME280;19323;56.072;9.698;2023-04-04T00:36:25;102465.63;;;26.16;31.87
32642;BME280;19323;56.072;9.698;2023-04-04T00:38:51;102471.84;;;26.16;31.96
32642;BME280;19323;56.072;9.698;2023-04-04T00:41:16;102466.47;;;26.16;31.66
32642;BME280;19323;56.072;9.698;2023-04-04T00:43:41;102467.31;;;26.17;31.71
32642;BME280;19323;56.072;9.698;2023-04-04T00:46:06;102454.88;;;26.16;31.79
32642;BME280;19323;56.072;9.698;2023-04-04T00:48:32;102453.16;;;26.15;31.80
32642;BME280;19323;56.072;9.698;2023-04-04T00:50:57;102454.88;;;26.16;31.59
32642;BME280;19323;56.072;9.698;2023-04-04T00:53:22;102452.19;;;26.16;31.53
32642;BME280;19323;56.072;9.698;2023-04-04T00:55:47;102444.25;;;26.14;31.78
32642;BME280;19323;56.072;9.698;2023-04-04T00:58:13;102438.16;;;26.12;31.71
32642;BME280;19323;56.072;9.698;2023-04-04T01:00:38;102438.03;;;26.14;31.52
32642;BME280;19323;56.072;9.698;2023-04-04T01:03:03;102439.00;;;26.13;31.89
32642;BME280;19323;56.072;9.698;2023-04-04T01:05:31;102440.72;;;26.14;31.82
32642;BME280;19323;56.072;9.698;2023-04-04T01:07:56;102440.84;;;26.12;31.43
32642;BME280;19323;56.072;9.698;2023-04-04T01:10:22;102446.09;;;26.14;31.77
32642;BME280;19323;56.072;9.698;2023-04-04T01:12:47;102442.66;;;26.12;31.88
32642;BME280;19323;56.072;9.698;2023-04-04T01:15:12;102435.56;;;26.10;31.43
32642;BME280;19323;56.072;9.698;2023-04-04T01:17:37;102445.34;;;26.12;31.58
32642;BME280;19323;56.072;9.698;2023-04-04T01:20:05;102441.09;;;26.09;31.64
32642;BME280;19323;56.072;9.698;2023-04-04T01:22:30;102436.31;;;26.01;31.31
32642;BME280;19323;56.072;9.698;2023-04-04T01:24:55;102441.19;;;26.07;31.52
32642;BME280;19323;56.072;9.698;2023-04-04T01:27:22;102443.16;;;26.05;31.51
32642;BME280;19323;56.072;9.698;2023-04-04T01:29:47;102435.09;;;26.05;31.66
32642;BME280;19323;56.072;9.698;2023-04-04T01:32:15;102440.47;;;26.05;31.53
32642;BME280;19323;56.072;9.698;2023-04-04T01:34:51;102442.31;;;26.05;31.63
32642;BME280;19323;56.072;9.698;2023-04-04T01:37:22;102444.88;;;26.06;31.66
32642;BME280;19323;56.072;9.698;2023-04-04T01:39:53;102444.88;;;26.06;31.56
32642;BME280;19323;56.072;9.698;2023-04-04T01:42:20;102439.63;;;26.05;31.46
32642;BME280;19323;56.072;9.698;2023-04-04T01:44:46;102431.56;;;26.05;31.23
32642;BME280;19323;56.072;9.698;2023-04-04T01:47:12;102433.53;;;26.03;31.47
32642;BME280;19323;56.072;9.698;2023-04-04T01:49:37;102428.16;;;26.03;31.44
32642;BME280;19323;56.072;9.698;2023-04-04T01:52:02;102429.00;;;26.03;31.50
32642;BME280;19323;56.072;9.698;2023-04-04T01:54:27;102421.94;;;26.02;31.40
32642;BME280;19323;56.072;9.698;2023-04-04T01:56:53;102424.63;;;26.02;31.49
32642;BME280;19323;56.072;9.698;2023-04-04T01:59:18;102430.94;;;26.01;31.33
32642;BME280;19323;56.072;9.698;2023-04-04T02:01:43;102423.00;;;26.00;31.44
32642;BME280;19323;56.072;9.698;2023-04-04T02:04:08;102423.00;;;26.00;31.25
32642;BME280;19323;56.072;9.698;2023-04-04T02:06:36;102420.31;;;26.00;31.33
32642;BME280;19323;56.072;9.698;2023-04-04T02:09:01;102425.84;;;25.98;31.06
32642;BME280;19323;56.072;9.698;2023-04-04T02:11:26;102421.31;;;25.99;31.34
32642;BME280;19323;56.072;9.698;2023-04-04T02:13:51;102421.31;;;25.99;31.19
32642;BME280;19323;56.072;9.698;2023-04-04T02:16:16;102420.47;;;25.98;31.22
32642;BME280;19323;56.072;9.698;2023-04-04T02:18:42;102424.97;;;25.98;30.88
32642;BME280;19323;56.072;9.698;2023-04-04T02:21:07;102416.94;;;25.98;30.91
32642;BME280;19323;56.072;9.698;2023-04-04T02:23:32;102412.53;;;25.97;31.25
32642;BME280;19323;56.072;9.698;2023-04-04T02:25:57;102417.03;;;25.96;31.10
32642;BME280;19323;56.072;9.698;2023-04-04T02:28:23;102417.03;;;25.96;31.02
32642;BME280;19323;56.072;9.698;2023-04-04T02:30:48;102407.25;;;25.95;31.18
32642;BME280;19323;56.072;9.698;2023-04-04T02:33:13;102407.41;;;25.94;30.98
32642;BME280;19323;56.072;9.698;2023-04-04T02:35:38;102409.94;;;25.95;31.16
32642;BME280;19323;56.072;9.698;2023-04-04T02:38:03;102411.06;;;25.93;31.14
32642;BME280;19323;56.072;9.698;2023-04-04T02:40:28;102415.47;;;25.94;30.99
32642;BME280;19323;56.072;9.698;2023-04-04T02:42:54;102418.16;;;25.94;31.11
32642;BME280;19323;56.072;9.698;2023-04-04T02:45:19;102410.19;;;25.92;30.88
32642;BME280;19323;56.072;9.698;2023-04-04T02:47:51;102414.72;;;25.92;31.04
32642;BME280;19323;56.072;9.698;2023-04-04T02:50:16;102409.34;;;25.92;30.77
32642;BME280;19323;56.072;9.698;2023-04-04T02:52:41;102415.69;;;25.90;30.82
32642;BME280;19323;56.072;9.698;2023-04-04T02:55:07;102410.31;;;25.90;31.04
32642;BME280;19323;56.072;9.698;2023-04-04T02:57:32;102405.09;;;25.89;30.98
32642;BME280;19323;56.072;9.698;2023-04-04T02:59:57;102408.72;;;25.88;30.88
32642;BME280;19323;56.072;9.698;2023-04-04T03:02:23;102403.38;;;25.88;30.63
32642;BME280;19323;56.072;9.698;2023-04-04T03:04:48;102402.47;;;25.87;30.68
32642;BME280;19323;56.072;9.698;2023-04-04T03:07:13;102396.16;;;25.88;30.94
32642;BME280;19323;56.072;9.698;2023-04-04T03:09:39;102390.78;;;25.88;30.52
32642;BME280;19323;56.072;9.698;2023-04-04T03:12:04;102388.97;;;25.89;30.94
32642;BME280;19323;56.072;9.698;2023-04-04T03:14:29;102374.78;;;25.87;30.70
32642;BME280;19323;56.072;9.698;2023-04-04T03:16:54;102380.16;;;25.87;30.74
32642;BME280;19323;56.072;9.698;2023-04-04T03:19:20;102383.69;;;25.87;30.53
32642;BME280;19323;56.072;9.698;2023-04-04T03:21:45;102380.28;;;25.85;30.54
32642;BME280;19323;56.072;9.698;2023-04-04T03:24:11;102382.13;;;25.85;30.54
32642;BME280;19323;56.072;9.698;2023-04-04T03:26:37;102392.13;;;25.83;30.70
32642;BME280;19323;56.072;9.698;2023-04-04T03:29:02;102400.16;;;25.83;30.71
32642;BME280;19323;56.072;9.698;2023-04-04T03:31:28;102395.75;;;25.82;30.66
32642;BME280;19323;56.072;9.698;2023-04-04T03:33:53;102396.84;;;25.79;30.70
32642;BME280;19323;56.072;9.698;2023-04-04T03:36:18;102394.06;;;25.81;30.57
32642;BME280;19323;56.072;9.698;2023-04-04T03:38:44;102388.81;;;25.79;30.58
32642;BME280;19323;56.072;9.698;2023-04-04T03:41:09;102391.50;;;25.79;30.60
32642;BME280;19323;56.072;9.698;2023-04-04T03:43:34;102395.16;;;25.78;30.50
32642;BME280;19323;56.072;9.698;2023-04-04T03:46:00;102387.97;;;25.79;30.73
32642;BME280;19323;56.072;9.698;2023-04-04T03:48:25;102390.66;;;25.79;30.75
32642;BME280;19323;56.072;9.698;2023-04-04T03:50:51;102388.06;;;25.77;30.48
32642;BME280;19323;56.072;9.698;2023-04-04T03:53:16;102378.34;;;25.76;30.72
32642;BME280;19323;56.072;9.698;2023-04-04T03:55:41;102375.66;;;25.76;30.36
32642;BME280;19323;56.072;9.698;2023-04-04T03:58:06;102365.03;;;25.75;30.42
32642;BME280;19323;56.072;9.698;2023-04-04T04:00:32;102358.81;;;25.74;30.51
32642;BME280;19323;56.072;9.698;2023-04-04T04:02:57;102358.91;;;25.73;30.33
32642;BME280;19323;56.072;9.698;2023-04-04T04:05:22;102360.88;;;25.70;30.43
32642;BME280;19323;56.072;9.698;2023-04-04T04:07:48;102358.19;;;25.70;30.78
32642;BME280;19323;56.072;9.698;2023-04-04T04:10:13;102355.63;;;25.69;30.45
32642;BME280;19323;56.072;9.698;2023-04-04T04:12:38;102352.09;;;25.68;30.40
32642;BME280;19323;56.072;9.698;2023-04-04T04:15:04;102354.03;;;25.66;30.31
32642;BME280;19323;56.072;9.698;2023-04-04T04:17:29;102350.50;;;25.66;30.44
32642;BME280;19323;56.072;9.698;2023-04-04T04:19:54;102346.13;;;25.65;30.62
32642;BME280;19323;56.072;9.698;2023-04-04T04:22:20;102352.44;;;25.64;30.37
32642;BME280;19323;56.072;9.698;2023-04-04T04:24:45;102351.59;;;25.63;30.71
32642;BME280;19323;56.072;9.698;2023-04-04T04:27:10;102348.91;;;25.63;30.55
32642;BME280;19323;56.072;9.698;2023-04-04T04:29:35;102347.09;;;25.64;30.31
32642;BME280;19323;56.072;9.698;2023-04-04T04:32:01;102351.59;;;25.63;30.24
32642;BME280;19323;56.072;9.698;2023-04-04T04:34:26;102345.38;;;25.63;30.26
32642;BME280;19323;56.072;9.698;2023-04-04T04:36:51;102345.38;;;25.63;30.45
32642;BME280;19323;56.072;9.698;2023-04-04T04:39:17;102343.66;;;25.62;30.31
32642;BME280;19323;56.072;9.698;2023-04-04T04:41:42;102343.66;;;25.62;30.43
32642;BME280;19323;56.072;9.698;2023-04-04T04:44:08;102343.78;;;25.60;30.31
32642;BME280;19323;56.072;9.698;2023-04-04T04:46:33;102344.78;;;25.59;30.48
32642;BME280;19323;56.072;9.698;2023-04-04T04:48:58;102338.56;;;25.59;30.48
32642;BME280;19323;56.072;9.698;2023-04-04T04:51:23;102343.06;;;25.58;30.24
32642;BME280;19323;56.072;9.698;2023-04-04T04:53:49;102339.41;;;25.59;30.53
32642;BME280;19323;56.072;9.698;2023-04-04T04:56:14;102342.19;;;25.58;30.05
32642;BME280;19323;56.072;9.698;2023-04-04T04:58:39;102337.81;;;25.57;30.27
32642;BME280;19323;56.072;9.698;2023-04-04T05:01:05;102338.78;;;25.56;30.29
32642;BME280;19323;56.072;9.698;2023-04-04T05:03:30;102332.56;;;25.55;30.41
32642;BME280;19323;56.072;9.698;2023-04-04T05:05:55;102331.72;;;25.55;30.45
32642;BME280;19323;56.072;9.698;2023-04-04T05:08:21;102328.19;;;25.54;30.23
32642;BME280;19323;56.072;9.698;2023-04-04T05:10:46;102329.16;;;25.53;30.32
32642;BME280;19323;56.072;9.698;2023-04-04T05:13:11;102325.63;;;25.53;30.43
32642;BME280;19323;56.072;9.698;2023-04-04T05:15:37;102321.34;;;25.50;30.33
32642;BME280;19323;56.072;9.698;2023-04-04T05:18:03;102316.22;;;25.47;30.56
32642;BME280;19323;56.072;9.698;2023-04-04T05:20:28;102320.63;;;25.48;30.37
32642;BME280;19323;56.072;9.698;2023-04-04T05:22:53;102311.72;;;25.47;30.18
32642;BME280;19323;56.072;9.698;2023-04-04T05:25:18;102320.63;;;25.48;30.22
32642;BME280;19323;56.072;9.698;2023-04-04T05:27:46;102327.69;;;25.49;30.38
32642;BME280;19323;56.072;9.698;2023-04-04T05:30:12;102321.56;;;25.47;30.48
32642;BME280;19323;56.072;9.698;2023-04-04T05:32:38;102320.72;;;25.46;30.15
32642;BME280;19323;56.072;9.698;2023-04-04T05:35:03;102323.41;;;25.46;30.29
32642;BME280;19323;56.072;9.698;2023-04-04T05:37:28;102324.25;;;25.47;30.55
32642;BME280;19323;56.072;9.698;2023-04-04T05:39:53;102326.09;;;25.46;30.24
32642;BME280;19323;56.072;9.698;2023-04-04T05:42:19;102329.78;;;25.45;30.50
32642;BME280;19323;56.072;9.698;2023-04-04T05:44:44;102324.50;;;25.44;30.38
32642;BME280;19323;56.072;9.698;2023-04-04T05:47:09;102328.03;;;25.44;30.31
32642;BME280;19323;56.072;9.698;2023-04-04T05:49:34;102331.56;;;25.45;30.25
32642;BME280;19323;56.072;9.698;2023-04-04T05:52:00;102336.19;;;25.43;30.39
32642;BME280;19323;56.072;9.698;2023-04-04T05:54:25;102339.75;;;25.43;30.48
32642;BME280;19323;56.072;9.698;2023-04-04T05:56:51;102330.72;;;25.44;30.60
32642;BME280;19323;56.072;9.698;2023-04-04T05:59:16;102333.50;;;25.43;30.54
32642;BME280;19323;56.072;9.698;2023-04-04T06:01:41;102334.50;;;25.42;30.58
32642;BME280;19323;56.072;9.698;2023-04-04T06:04:06;102333.66;;;25.41;30.41
32642;BME280;19323;56.072;9.698;2023-04-04T06:06:32;102332.81;;;25.41;30.41
32642;BME280;19323;56.072;9.698;2023-04-04T06:08:57;102336.34;;;25.41;30.51
32642;BME280;19323;56.072;9.698;2023-04-04T06:11:23;102333.66;;;25.41;30.43
32642;BME280;19323;56.072;9.698;2023-04-04T06:13:48;102330.13;;;25.41;30.62
32642;BME280;19323;56.072;9.698;2023-04-04T06:16:15;102330.25;;;25.39;30.17
32642;BME280;19323;56.072;9.698;2023-04-04T06:18:40;102322.31;;;25.38;30.72
32642;BME280;19323;56.072;9.698;2023-04-04T06:21:06;102327.56;;;25.39;30.78
32642;BME280;19323;56.072;9.698;2023-04-04T06:23:31;102328.53;;;25.38;30.60
32642;BME280;19323;56.072;9.698;2023-04-04T06:25:56;102325.72;;;25.40;30.44
32642;BME280;19323;56.072;9.698;2023-04-04T06:28:21;102327.66;;;25.38;30.62
32642;BME280;19323;56.072;9.698;2023-04-04T06:30:46;102315.25;;;25.37;30.71
32642;BME280;19323;56.072;9.698;2023-04-04T06:33:12;102322.31;;;25.38;30.50
32642;BME280;19323;56.072;9.698;2023-04-04T06:35:37;102320.63;;;25.37;30.95
32642;BME280;19323;56.072;9.698;2023-04-04T06:38:02;102320.63;;;25.37;30.82
32642;BME280;19323;56.072;9.698;2023-04-04T06:40:29;102319.88;;;25.35;30.95
32642;BME280;19323;56.072;9.698;2023-04-04T06:42:54;102321.47;;;25.37;30.70
32642;BME280;19323;56.072;9.698;2023-04-04T06:45:22;102317.94;;;25.37;30.91
32642;BME280;19323;56.072;9.698;2023-04-04T06:47:47;102313.41;;;25.37;30.98
32642;BME280;19323;56.072;9.698;2023-04-04T06:50:14;102316.09;;;25.37;30.72
32642;BME280;19323;56.072;9.698;2023-04-04T06:52:39;102318.78;;;25.37;30.59
32642;BME280;19323;56.072;9.698;2023-04-04T06:55:04;102319.63;;;25.38;30.95
32642;BME280;19323;56.072;9.698;2023-04-04T06:57:30;102309.75;;;25.38;30.99
32642;BME280;19323;56.072;9.698;2023-04-04T06:59:55;102312.44;;;25.38;30.96
32642;BME280;19323;56.072;9.698;2023-04-04T07:02:21;102311.34;;;25.41;30.78
32642;BME280;19323;56.072;9.698;2023-04-04T07:04:46;102306.00;;;25.41;31.00
32642;BME280;19323;56.072;9.698;2023-04-04T07:07:11;102306.00;;;25.41;30.92
32642;BME280;19323;56.072;9.698;2023-04-04T07:09:37;102301.47;;;25.41;30.97
32642;BME280;19323;56.072;9.698;2023-04-04T07:12:02;102297.81;;;25.42;30.92
32642;BME280;19323;56.072;9.698;2023-04-04T07:14:27;102297.69;;;25.44;31.01
32642;BME280;19323;56.072;9.698;2023-04-04T07:16:52;102303.16;;;25.42;31.04
32642;BME280;19323;56.072;9.698;2023-04-04T07:19:18;102295.25;;;25.41;31.44
32642;BME280;19323;56.072;9.698;2023-04-04T07:21:44;102287.22;;;25.41;31.29
32642;BME280;19323;56.072;9.698;2023-04-04T07:24:09;102296.09;;;25.41;31.40
32642;BME280;19323;56.072;9.698;2023-04-04T07:26:34;102290.59;;;25.43;31.28
32642;BME280;19323;56.072;9.698;2023-04-04T07:28:59;102292.06;;;25.47;31.61
32642;BME280;19323;56.072;9.698;2023-04-04T07:31:24;102288.16;;;25.51;31.59
32642;BME280;19323;56.072;9.698;2023-04-04T07:33:50;102288.78;;;25.55;31.60
32642;BME280;19323;56.072;9.698;2023-04-04T07:36:17;102288.53;;;25.58;31.64
32642;BME280;19323;56.072;9.698;2023-04-04T07:38:42;102282.94;;;25.61;31.56
32642;BME280;19323;56.072;9.698;2023-04-04T07:41:07;102276.47;;;25.63;31.66
32642;BME280;19323;56.072;9.698;2023-04-04T07:43:33;102285.25;;;25.65;31.65
32642;BME280;19323;56.072;9.698;2023-04-04T07:45:58;102276.09;;;25.68;31.82
32642;BME280;19323;56.072;9.698;2023-04-04T07:48:24;102275.97;;;25.69;31.43
32642;BME280;19323;56.072;9.698;2023-04-04T07:50:49;102267.78;;;25.71;31.71
32642;BME280;19323;56.072;9.698;2023-04-04T07:53:14;102273.78;;;25.75;31.32
32642;BME280;19323;56.072;9.698;2023-04-04T07:55:39;102281.81;;;25.75;31.47
32642;BME280;19323;56.072;9.698;2023-04-04T07:58:05;102274.38;;;25.78;31.56
32642;BME280;19323;56.072;9.698;2023-04-04T08:00:30;102267.06;;;25.80;31.27
32642;BME280;19323;56.072;9.698;2023-04-04T08:02:55;102261.56;;;25.82;31.27
32642;BME280;19323;56.072;9.698;2023-04-04T08:05:23;102257.75;;;25.84;31.26
32642;BME280;19323;56.072;9.698;2023-04-04T08:07:48;102259.59;;;25.84;31.48
32642;BME280;19323;56.072;9.698;2023-04-04T08:10:13;102255.22;;;25.83;31.63
32642;BME280;19323;56.072;9.698;2023-04-04T08:12:41;102258.03;;;25.81;31.37
32642;BME280;19323;56.072;9.698;2023-04-04T08:15:06;102260.81;;;25.80;31.36
32642;BME280;19323;56.072;9.698;2023-04-04T08:17:32;102254.72;;;25.78;31.44
32642;BME280;19323;56.072;9.698;2023-04-04T08:19:57;102247.94;;;25.74;31.73
32642;BME280;19323;56.072;9.698;2023-04-04T08:22:22;102254.38;;;25.71;31.63
32642;BME280;19323;56.072;9.698;2023-04-04T08:24:47;102259.88;;;25.69;31.67
32642;BME280;19323;56.072;9.698;2023-04-04T08:27:12;102251.09;;;25.67;31.76
32642;BME280;19323;56.072;9.698;2023-04-04T08:29:39;102255.59;;;25.67;31.99
32642;BME280;19323;56.072;9.698;2023-04-04T08:32:05;102250.38;;;25.65;32.00
32642;BME280;19323;56.072;9.698;2023-04-04T08:34:30;102253.91;;;25.66;31.92
32642;BME280;19323;56.072;9.698;2023-04-04T08:36:56;102260.25;;;25.65;31.77
32642;BME280;19323;56.072;9.698;2023-04-04T08:39:21;102253.06;;;25.65;31.89
32642;BME280;19323;56.072;9.698;2023-04-04T08:41:47;102254.75;;;25.66;31.81
32642;BME280;19323;56.072;9.698;2023-04-04T08:44:16;102248.53;;;25.66;32.23
32642;BME280;19323;56.072;9.698;2023-04-04T08:46:44;102245.00;;;25.65;31.86
32642;BME280;19323;56.072;9.698;2023-04-04T08:49:10;102253.91;;;25.66;32.06
32642;BME280;19323;56.072;9.698;2023-04-04T08:51:36;102245.00;;;25.65;31.75
32642;BME280;19323;56.072;9.698;2023-04-04T08:54:02;102245.00;;;25.65;31.90
32642;BME280;19323;56.072;9.698;2023-04-04T08:56:27;102234.28;;;25.65;32.06
32642;BME280;19323;56.072;9.698;2023-04-04T08:58:53;102230.59;;;25.66;32.21
32642;BME280;19323;56.072;9.698;2023-04-04T09:01:18;102228.63;;;25.68;32.08
32642;BME280;19323;56.072;9.698;2023-04-04T09:03:44;102236.56;;;25.70;32.16
32642;BME280;19323;56.072;9.698;2023-04-04T09:06:09;102228.16;;;25.75;32.28
32642;BME280;19323;56.072;9.698;2023-04-04T09:08:35;102224.84;;;25.82;32.08
32642;BME280;19323;56.072;9.698;2023-04-04T09:11:01;102221.69;;;25.88;31.93
32642;BME280;19323;56.072;9.698;2023-04-04T09:13:26;102222.91;;;25.96;31.81
32642;BME280;19323;56.072;9.698;2023-04-04T09:15:52;102221.41;;;26.03;31.70
32642;BME280;19323;56.072;9.698;2023-04-04T09:18:20;102221.03;;;26.07;32.02
32642;BME280;19323;56.072;9.698;2023-04-04T09:20:46;102219.91;;;26.10;31.70
32642;BME280;19323;56.072;9.698;2023-04-04T09:23:15;102218.22;;;26.09;31.59
32642;BME280;19323;56.072;9.698;2023-04-04T09:25:51;102220.75;;;26.10;31.99
32642;BME280;19323;56.072;9.698;2023-04-04T09:28:16;102216.38;;;26.09;31.78
32642;BME280;19323;56.072;9.698;2023-04-04T09:30:42;102220.75;;;26.10;31.93
32642;BME280;19323;56.072;9.698;2023-04-04T09:33:10;102220.91;;;26.09;31.80
32642;BME280;19323;56.072;9.698;2023-04-04T09:35:36;102220.03;;;26.08;31.67
32642;BME280;19323;56.072;9.698;2023-04-04T09:38:02;102220.03;;;26.08;31.67
32642;BME280;19323;56.072;9.698;2023-04-04T09:40:28;102219.19;;;26.08;31.50
32642;BME280;19323;56.072;9.698;2023-04-04T09:42:54;102220.75;;;26.10;31.38
32642;BME280;19323;56.072;9.698;2023-04-04T09:45:22;102219.66;;;26.13;31.76
32642;BME280;19323;56.072;9.698;2023-04-04T09:47:47;102216.09;;;26.13;31.55
32642;BME280;19323;56.072;9.698;2023-04-04T09:50:15;102220.50;;;26.14;31.65
32642;BME280;19323;56.072;9.698;2023-04-04T09:52:44;102207.81;;;26.16;31.69
32642;BME280;19323;56.072;9.698;2023-04-04T09:55:12;102216.59;;;26.18;31.44
32642;BME280;19323;56.072;9.698;2023-04-04T09:57:38;102202.19;;;26.19;31.33
32642;BME280;19323;56.072;9.698;2023-04-04T10:00:05;102210.00;;;26.22;31.66
32642;BME280;19323;56.072;9.698;2023-04-04T10:02:35;102214.38;;;26.23;31.45
32642;BME280;19323;56.072;9.698;2023-04-04T10:05:02;102207.03;;;26.25;31.46
32642;BME280;19323;56.072;9.698;2023-04-04T10:07:28;102199.69;;;26.27;31.86
32642;BME280;19323;56.072;9.698;2023-04-04T10:09:53;102209.44;;;26.28;31.45
32642;BME280;19323;56.072;9.698;2023-04-04T10:12:29;102211.28;;;26.27;31.63
32642;BME280;19323;56.072;9.698;2023-04-04T10:15:00;102213.13;;;26.27;31.68
32642;BME280;19323;56.072;9.698;2023-04-04T10:17:29;102218.63;;;26.25;31.88
32642;BME280;19323;56.072;9.698;2023-04-04T10:19:55;102209.72;;;26.25;31.54
32642;BME280;19323;56.072;9.698;2023-04-04T10:22:21;102209.84;;;26.23;31.96
32642;BME280;19323;56.072;9.698;2023-04-04T10:24:47;102196.56;;;26.22;31.71
32642;BME280;19323;56.072;9.698;2023-04-04T10:27:12;102215.38;;;26.22;31.77
32642;BME280;19323;56.072;9.698;2023-04-04T10:29:38;102206.44;;;26.21;31.94
32642;BME280;19323;56.072;9.698;2023-04-04T10:32:06;102197.53;;;26.21;31.96
32642;BME280;19323;56.072;9.698;2023-04-04T10:34:44;102205.59;;;26.21;32.18
32642;BME280;19323;56.072;9.698;2023-04-04T10:37:14;102196.69;;;26.20;31.82
32642;BME280;19323;56.072;9.698;2023-04-04T10:39:51;102203.75;;;26.21;32.25
32642;BME280;19323;56.072;9.698;2023-04-04T10:42:17;102195.69;;;26.21;32.12
32642;BME280;19323;56.072;9.698;2023-04-04T10:44:43;102196.56;;;26.22;32.02
32642;BME280;19323;56.072;9.698;2023-04-04T10:47:21;102199.09;;;26.23;31.84
32642;BME280;19323;56.072;9.698;2023-04-04T10:49:47;102183.88;;;26.24;31.95
32642;BME280;19323;56.072;9.698;2023-04-04T10:52:14;102188.97;;;26.27;32.25
32642;BME280;19323;56.072;9.698;2023-04-04T10:54:40;102187.84;;;26.29;32.06
32642;BME280;19323;56.072;9.698;2023-04-04T10:57:06;102186.72;;;26.32;31.99
32642;BME280;19323;56.072;9.698;2023-04-04T10:59:31;102185.50;;;26.36;32.23
32642;BME280;19323;56.072;9.698;2023-04-04T11:01:59;102175.47;;;26.38;31.96
32642;BME280;19323;56.072;9.698;2023-04-04T11:04:32;102180.56;;;26.41;32.41
32642;BME280;19323;56.072;9.698;2023-04-04T11:07:07;102179.31;;;26.45;32.12
32642;BME280;19323;56.072;9.698;2023-04-04T11:12:11;102174.03;;;26.55;31.54
32642;BME280;19323;56.072;9.698;2023-04-04T11:14:50;102181.00;;;26.58;31.76
32642;BME280;19323;56.072;9.698;2023-04-04T11:17:18;102175.34;;;26.61;31.31
32642;BME280;19323;56.072;9.698;2023-04-04T11:19:57;102169.47;;;26.67;31.24
32642;BME280;19323;56.072;9.698;2023-04-04T11:22:23;102165.53;;;26.71;31.23
32642;BME280;19323;56.072;9.698;2023-04-04T11:24:48;102172.47;;;26.74;31.06
32642;BME280;19323;56.072;9.698;2023-04-04T11:27:22;102155.38;;;26.75;31.06
32642;BME280;19323;56.072;9.698;2023-04-04T11:29:51;102158.78;;;26.77;30.85
32642;BME280;19323;56.072;9.698;2023-04-04T11:32:28;102166.44;;;26.81;30.85
32642;BME280;19323;56.072;9.698;2023-04-04T11:34:53;102164.47;;;26.83;30.79
32642;BME280;19323;56.072;9.698;2023-04-04T11:37:20;102155.16;;;26.87;30.64
32642;BME280;19323;56.072;9.698;2023-04-04T11:39:47;102158.56;;;26.89;30.92
32642;BME280;19323;56.072;9.698;2023-04-04T11:42:23;102154.59;;;26.93;30.45
32642;BME280;19323;56.072;9.698;2023-04-04T11:47:14;102154.19;;;26.98;30.55
32642;BME280;19323;56.072;9.698;2023-04-04T11:49:44;102153.34;;;26.98;30.32
32642;BME280;19323;56.072;9.698;2023-04-04T11:52:12;102155.19;;;26.97;30.86
32642;BME280;19323;56.072;9.698;2023-04-04T11:54:37;102138.22;;;26.97;30.58
32642;BME280;19323;56.072;9.698;2023-04-04T11:57:06;102136.25;;;26.99;30.61
32642;BME280;19323;56.072;9.698;2023-04-04T11:59:32;102139.78;;;26.99;30.75
32642;BME280;19323;56.072;9.698;2023-04-04T12:01:58;102133.28;;;27.02;30.68
32642;BME280;19323;56.072;9.698;2023-04-04T12:04:25;102133.16;;;27.03;30.44
32642;BME280;19323;56.072;9.698;2023-04-04T12:06:51;102134.69;;;27.06;30.68
32642;BME280;19323;56.072;9.698;2023-04-04T12:09:17;102120.97;;;27.09;30.39
32642;BME280;19323;56.072;9.698;2023-04-04T12:11:44;102122.69;;;27.10;30.27
32642;BME280;19323;56.072;9.698;2023-04-04T12:14:16;102119.88;;;27.11;30.26
32642;BME280;19323;56.072;9.698;2023-04-04T12:16:42;102108.84;;;27.15;30.50
32642;BME280;19323;56.072;9.698;2023-04-04T12:19:07;102111.09;;;27.19;29.94
32642;BME280;19323;56.072;9.698;2023-04-04T12:21:32;102103.78;;;27.21;30.02
32642;BME280;19323;56.072;9.698;2023-04-04T12:23:58;102107.91;;;27.25;30.35
32642;BME280;19323;56.072;9.698;2023-04-04T12:26:23;102104.94;;;27.28;30.36
32642;BME280;19323;56.072;9.698;2023-04-04T12:28:53;102105.63;;;27.30;30.43
32642;BME280;19323;56.072;9.698;2023-04-04T12:31:21;102106.22;;;27.34;30.47
32642;BME280;19323;56.072;9.698;2023-04-04T12:33:46;102108.78;;;27.36;30.48
32642;BME280;19323;56.072;9.698;2023-04-04T12:36:11;102106.94;;;27.36;30.40
32642;BME280;19323;56.072;9.698;2023-04-04T12:38:56;102106.94;;;27.36;30.81
32642;BME280;19323;56.072;9.698;2023-04-04T12:41:22;102096.19;;;27.36;30.75
32642;BME280;19323;56.072;9.698;2023-04-04T12:43:47;102086.25;;;27.37;30.64
32642;BME280;19323;56.072;9.698;2023-04-04T12:46:12;102079.91;;;27.38;30.30
32642;BME280;19323;56.072;9.698;2023-04-04T12:48:37;102080.03;;;27.36;30.67